createdAt,value
2023-05-02T00:02:24.763Z,75.86
2023-05-02T00:04:51.309Z,75.87
2023-05-02T00:07:17.679Z,76.29
2023-05-02T00:09:43.974Z,76.18
2023-05-02T00:12:10.293Z,76.25
2023-05-02T00:14:36.587Z,76.49
2023-05-02T00:17:02.946Z,75.93
2023-05-02T00:19:29.403Z,75.81
2023-05-02T00:21:55.691Z,75.78
2023-05-02T00:24:22.038Z,75.64
2023-05-02T00:26:48.425Z,75.98
2023-05-02T00:29:14.727Z,75.89
2023-05-02T00:31:41.482Z,76.23
2023-05-02T00:34:07.916Z,75.96
2023-05-02T00:36:34.226Z,76.03
2023-05-02T00:39:00.531Z,75.54
2023-05-02T00:41:26.816Z,75.86
2023-05-02T00:43:53.225Z,75.84
2023-05-02T00:46:19.598Z,76.29
2023-05-02T00:48:45.931Z,76.15
2023-05-02T00:51:12.373Z,76.19
2023-05-02T00:53:39.996Z,76.01
2023-05-02T00:56:07.228Z,75.76
2023-05-02T00:58:33.606Z,75.85
2023-05-02T01:01:11.477Z,76.54
2023-05-02T01:03:53.160Z,76.43
2023-05-02T01:07:16.924Z,77.16
2023-05-02T01:10:07.665Z,76.73
2023-05-02T01:12:51.573Z,76.55
2023-05-02T01:15:21.577Z,76.20
2023-05-02T01:17:48.927Z,76.33
2023-05-02T01:20:18.856Z,76.52
2023-05-02T01:22:46.411Z,76.72
2023-05-02T01:25:30.774Z,79.46
2023-05-02T01:28:19.176Z,77.44
2023-05-02T01:30:46.936Z,76.61
2023-05-02T01:33:15.921Z,76.86
2023-05-02T01:35:44.656Z,77.16
2023-05-02T01:38:15.033Z,78.20
2023-05-02T01:40:44.533Z,78.77
2023-05-02T01:43:12.825Z,78.78
2023-05-02T01:45:43.134Z,78.42
2023-05-02T01:48:11.314Z,80.24
2023-05-02T01:50:41.601Z,78.73
2023-05-02T01:53:09.670Z,78.86
2023-05-02T01:55:38.084Z,79.83
2023-05-02T01:58:06.421Z,80.16
2023-05-02T02:00:33.530Z,79.21
2023-05-02T02:03:00.522Z,78.94
2023-05-02T02:05:28.161Z,78.37
2023-05-02T02:07:54.466Z,79.60
2023-05-02T02:10:22.796Z,77.41
2023-05-02T02:12:53.499Z,77.72
2023-05-02T02:15:25.497Z,77.10
2023-05-02T02:18:05.252Z,77.45
2023-05-02T02:20:32.193Z,77.88
2023-05-02T02:23:03.213Z,77.40
2023-05-02T02:25:29.747Z,78.30
2023-05-02T02:27:57.054Z,79.36
2023-05-02T02:30:23.468Z,78.71
2023-05-02T02:32:49.797Z,78.35
2023-05-02T02:35:16.159Z,77.91
2023-05-02T02:38:00.768Z,78.15
2023-05-02T02:40:37.790Z,77.77
2023-05-02T02:43:27.465Z,77.58
2023-05-02T02:46:12.176Z,77.38
2023-05-02T02:49:02.907Z,77.77
2023-05-02T02:51:31.491Z,79.20
2023-05-02T02:54:15.488Z,78.96
2023-05-02T02:57:01.188Z,78.75
2023-05-02T02:59:38.571Z,78.36
2023-05-02T03:02:09.095Z,77.92
2023-05-02T03:04:39.242Z,77.50
2023-05-02T03:07:05.639Z,78.00
2023-05-02T03:10:03.072Z,77.55
2023-05-02T03:12:29.528Z,77.98
2023-05-02T03:15:08.307Z,77.98
2023-05-02T03:17:34.602Z,77.43
2023-05-02T03:20:01.060Z,77.57
2023-05-02T03:22:27.671Z,77.51
2023-05-02T03:24:53.950Z,77.58
2023-05-02T03:27:20.273Z,77.88
2023-05-02T03:29:46.621Z,77.63
2023-05-02T03:32:13.192Z,77.81
2023-05-02T03:34:39.747Z,78.13
2023-05-02T03:37:06.045Z,77.41
2023-05-02T03:39:32.308Z,77.96
2023-05-02T03:41:58.619Z,77.75
2023-05-02T03:44:24.896Z,77.66
2023-05-02T03:46:51.318Z,77.72
2023-05-02T03:49:17.663Z,79.78
2023-05-02T03:51:43.962Z,78.37
2023-05-02T03:54:10.265Z,78.59
2023-05-02T03:56:36.524Z,78.59
2023-05-02T03:59:02.820Z,78.94
2023-05-02T04:01:29.114Z,78.21
2023-05-02T04:03:55.456Z,78.82
2023-05-02T04:06:21.825Z,78.67
2023-05-02T04:08:48.575Z,79.31
2023-05-02T04:11:15.306Z,79.98
2023-05-02T04:13:41.598Z,79.88
2023-05-02T04:16:09.025Z,79.16
2023-05-02T04:18:35.428Z,78.36
2023-05-02T04:21:01.698Z,78.55
2023-05-02T04:23:28.118Z,78.82
2023-05-02T04:25:55.307Z,78.33
2023-05-02T04:28:22.264Z,78.17
2023-05-02T04:30:51.758Z,78.53
2023-05-02T04:33:18.552Z,79.18
2023-05-02T04:35:44.896Z,78.19
2023-05-02T04:38:11.284Z,78.58
2023-05-02T04:40:37.568Z,78.14
2023-05-02T04:43:03.878Z,77.95
2023-05-02T04:45:30.146Z,77.81
2023-05-02T04:47:56.471Z,77.52
2023-05-02T04:50:22.878Z,77.14
2023-05-02T04:52:49.163Z,77.14
2023-05-02T04:55:15.460Z,77.23
2023-05-02T04:57:41.862Z,77.96
2023-05-02T05:00:08.590Z,77.51
2023-05-02T05:02:34.951Z,77.64
2023-05-02T05:05:02.102Z,77.82
2023-05-02T05:07:28.494Z,77.54
2023-05-02T05:09:54.851Z,77.15
2023-05-02T05:12:21.143Z,77.82
2023-05-02T05:14:47.525Z,76.70
2023-05-02T05:17:13.790Z,76.53
2023-05-02T05:19:40.084Z,76.69
2023-05-02T05:22:06.483Z,76.69
2023-05-02T05:24:32.880Z,76.99
2023-05-02T05:26:59.174Z,76.68
2023-05-02T05:29:25.443Z,76.37
2023-05-02T05:31:51.797Z,76.86
2023-05-02T05:34:18.227Z,76.23
2023-05-02T05:36:44.737Z,76.45
2023-05-02T05:39:11.039Z,76.31
2023-05-02T05:41:37.331Z,75.74
2023-05-02T05:44:03.920Z,75.20
2023-05-02T05:46:30.426Z,74.53
2023-05-02T05:48:56.776Z,75.10
2023-05-02T05:51:23.048Z,74.71
2023-05-02T05:53:49.613Z,76.36
2023-05-02T05:56:16.018Z,75.79
2023-05-02T05:58:42.352Z,76.08
2023-05-02T06:01:08.669Z,75.10
2023-05-02T06:03:35.055Z,74.99
2023-05-02T06:06:01.558Z,74.51
2023-05-02T06:08:27.879Z,74.01
2023-05-02T06:10:54.157Z,74.35
2023-05-02T06:13:20.404Z,73.97
2023-05-02T06:15:46.694Z,73.90
2023-05-02T06:18:13.834Z,73.87
2023-05-02T06:20:40.207Z,74.10
2023-05-02T06:23:06.520Z,73.41
2023-05-02T06:25:32.837Z,73.77
2023-05-02T06:27:59.382Z,73.08
2023-05-02T06:30:25.673Z,73.02
2023-05-02T06:32:52.021Z,73.34
2023-05-02T06:35:18.353Z,73.52
2023-05-02T06:37:44.741Z,73.09
2023-05-02T06:40:11.438Z,74.07
2023-05-02T06:42:37.724Z,72.71
2023-05-02T06:45:04.463Z,73.27
2023-05-02T06:47:31.513Z,73.44
2023-05-02T06:49:58.020Z,72.83
2023-05-02T06:52:24.542Z,71.92
2023-05-02T06:54:50.849Z,71.76
2023-05-02T06:57:17.249Z,71.26
2023-05-02T06:59:43.516Z,70.88
2023-05-02T07:02:09.866Z,71.83
2023-05-02T07:04:36.213Z,71.69
2023-05-02T07:07:02.618Z,71.00
2023-05-02T07:09:28.913Z,71.20
2023-05-02T07:11:55.240Z,70.90
2023-05-02T07:14:21.567Z,71.93
2023-05-02T07:16:47.929Z,71.52
2023-05-02T07:19:14.254Z,71.38
2023-05-02T07:21:40.549Z,71.28
2023-05-02T07:24:06.838Z,71.99
2023-05-02T07:26:33.207Z,71.59
2023-05-02T07:28:59.535Z,71.88
2023-05-02T07:31:25.862Z,72.13
2023-05-02T07:33:52.212Z,72.17
2023-05-02T07:36:18.504Z,72.26
2023-05-02T07:38:44.854Z,71.69
2023-05-02T07:41:13.688Z,71.52
2023-05-02T07:43:40.078Z,70.42
2023-05-02T07:46:06.595Z,70.36
2023-05-02T07:48:32.953Z,70.49
2023-05-02T07:51:06.804Z,69.86
2023-05-02T07:53:33.075Z,69.60
2023-05-02T07:55:59.431Z,69.46
2023-05-02T07:58:25.705Z,69.77
2023-05-02T08:00:51.974Z,69.96
2023-05-02T08:03:18.448Z,70.59
2023-05-02T08:05:44.773Z,71.30
2023-05-02T08:08:11.089Z,71.74
2023-05-02T08:10:37.389Z,72.09
2023-05-02T08:13:03.688Z,72.28
2023-05-02T08:15:30.032Z,72.55
2023-05-02T08:17:56.375Z,72.57
2023-05-02T08:20:22.779Z,73.34
2023-05-02T08:22:49.128Z,73.65
2023-05-02T08:25:15.798Z,73.12
2023-05-02T08:27:42.080Z,73.04
2023-05-02T08:30:08.854Z,73.65
2023-05-02T08:32:36.520Z,73.03
2023-05-02T08:35:02.961Z,72.64
2023-05-02T08:37:29.251Z,71.90
2023-05-02T08:39:55.558Z,72.31
2023-05-02T08:42:22.433Z,71.53
2023-05-02T08:44:49.188Z,70.84
2023-05-02T08:47:16.179Z,70.81
2023-05-02T08:49:43.354Z,70.42
2023-05-02T08:52:09.751Z,70.30
2023-05-02T08:54:38.499Z,68.55
2023-05-02T08:57:05.468Z,68.22
2023-05-02T08:59:31.886Z,68.11
2023-05-02T09:02:11.711Z,68.15
2023-05-02T09:04:41.715Z,65.75
2023-05-02T09:07:08.699Z,66.74
2023-05-02T09:09:36.309Z,67.20
2023-05-02T09:12:03.117Z,67.00
2023-05-02T09:14:29.494Z,67.20
2023-05-02T09:16:59.553Z,67.16
2023-05-02T09:19:26.442Z,67.45
2023-05-02T09:21:53.007Z,65.65
2023-05-02T09:24:21.626Z,64.73
2023-05-02T09:26:59.718Z,64.93
2023-05-02T09:29:27.811Z,65.47
2023-05-02T09:31:56.174Z,64.85
2023-05-02T09:34:23.535Z,64.22
2023-05-02T09:36:51.343Z,65.33
2023-05-02T09:39:20.165Z,65.87
2023-05-02T09:41:48.112Z,64.38
2023-05-02T09:44:16.683Z,64.49
2023-05-02T09:46:44.706Z,65.11
2023-05-02T09:49:11.229Z,63.20
2023-05-02T09:51:37.880Z,61.13
2023-05-02T09:54:04.372Z,59.92
2023-05-02T09:56:30.783Z,60.86
2023-05-02T09:59:16.100Z,58.19
2023-05-02T10:01:42.888Z,59.92
2023-05-02T10:04:14.331Z,54.80
2023-05-02T10:06:40.987Z,55.37
2023-05-02T10:09:09.998Z,55.62
2023-05-02T10:11:39.562Z,54.27
2023-05-02T10:14:10.328Z,54.49
2023-05-02T10:16:45.124Z,54.03
2023-05-02T10:19:13.058Z,53.60
2023-05-02T10:21:40.239Z,55.20
2023-05-02T10:24:06.883Z,54.55
2023-05-02T10:26:34.862Z,54.89
2023-05-02T10:29:01.376Z,54.61
2023-05-02T10:31:31.242Z,54.80
2023-05-02T10:33:59.409Z,54.65
2023-05-02T10:36:27.150Z,56.35
2023-05-02T10:38:54.980Z,56.14
2023-05-02T10:41:26.800Z,58.02
2023-05-02T10:43:53.575Z,57.39
2023-05-02T10:46:34.640Z,55.67
2023-05-02T10:49:06.440Z,56.76
2023-05-02T10:51:33.814Z,55.80
2023-05-02T10:54:38.781Z,51.47
2023-05-02T10:57:06.755Z,53.78
2023-05-02T10:59:40.834Z,52.38
2023-05-02T11:02:22.311Z,52.96
2023-05-02T11:05:06.036Z,52.74
2023-05-02T11:07:33.987Z,53.05
2023-05-02T11:10:18.714Z,52.51
2023-05-02T11:12:47.058Z,47.83
2023-05-02T11:15:14.282Z,48.69
2023-05-02T11:18:05.848Z,48.92
2023-05-02T11:20:32.244Z,49.06
2023-05-02T11:23:19.122Z,49.68
2023-05-02T11:25:49.915Z,45.31
2023-05-02T11:28:37.519Z,45.86
2023-05-02T11:31:05.138Z,46.56
2023-05-02T11:33:31.692Z,46.16
2023-05-02T11:35:58.354Z,45.80
2023-05-02T11:38:26.532Z,46.72
2023-05-02T11:40:58.156Z,47.37
2023-05-02T11:43:26.503Z,47.07
2023-05-02T11:45:54.459Z,46.23
2023-05-02T11:48:23.093Z,46.81
2023-05-02T11:50:54.651Z,47.62
2023-05-02T11:53:23.447Z,46.93
2023-05-02T11:55:55.232Z,47.66
2023-05-02T11:58:27.069Z,47.66
2023-05-02T12:00:53.771Z,48.06
2023-05-02T12:03:28.876Z,48.84
2023-05-02T12:05:56.236Z,49.12
2023-05-02T12:08:24.871Z,48.98
2023-05-02T12:10:52.474Z,49.45
2023-05-02T12:13:20.296Z,50.45
2023-05-02T12:15:47.507Z,50.66
2023-05-02T12:18:14.642Z,50.55
2023-05-02T12:20:41.149Z,50.96
2023-05-02T12:23:08.297Z,49.70
2023-05-02T12:25:41.721Z,49.31
2023-05-02T12:28:09.009Z,49.30
2023-05-02T12:30:37.497Z,48.69
2023-05-02T12:33:04.616Z,49.20
2023-05-02T12:35:31.389Z,49.64
2023-05-02T12:38:12.357Z,51.14
2023-05-02T12:40:39.321Z,51.78
2023-05-02T12:43:05.898Z,52.89
2023-05-02T12:45:32.447Z,53.55
2023-05-02T12:47:58.831Z,54.02
2023-05-02T12:50:40.475Z,54.84
2023-05-02T12:53:06.768Z,56.44
2023-05-02T12:55:33.066Z,56.70
2023-05-02T12:58:07.005Z,56.62
2023-05-02T13:00:37.259Z,55.71
2023-05-02T13:03:04.169Z,58.76
2023-05-02T13:05:30.844Z,61.13
2023-05-02T13:07:57.992Z,61.83
2023-05-02T13:10:24.383Z,62.19
2023-05-02T13:12:50.745Z,63.64
2023-05-02T13:15:17.031Z,64.68
2023-05-02T13:17:43.442Z,64.76
2023-05-02T13:20:10.352Z,66.58
2023-05-02T13:22:36.796Z,65.49
2023-05-02T13:25:06.848Z,67.74
2023-05-02T13:27:33.497Z,68.15
2023-05-02T13:30:00.475Z,68.04
2023-05-02T13:32:27.506Z,68.96
2023-05-02T13:34:53.861Z,69.02
2023-05-02T13:37:20.341Z,69.46
2023-05-02T13:39:46.650Z,71.76
2023-05-02T13:42:12.942Z,70.57
2023-05-02T13:44:39.253Z,72.86
2023-05-02T13:47:05.582Z,71.80
2023-05-02T13:49:31.877Z,71.30
2023-05-02T13:51:58.145Z,70.93
2023-05-02T13:54:24.474Z,70.60
2023-05-02T13:56:50.772Z,69.93
2023-05-02T13:59:17.120Z,69.43
2023-05-02T14:01:43.440Z,69.09
2023-05-02T14:04:09.894Z,69.36
2023-05-02T14:06:36.377Z,69.17
2023-05-02T14:09:03.572Z,67.97
2023-05-02T14:11:30.138Z,67.00
2023-05-02T14:13:56.473Z,63.91
2023-05-02T14:16:23.055Z,64.20
2023-05-02T14:18:49.396Z,62.52
2023-05-02T14:21:16.495Z,62.37
2023-05-02T14:23:42.856Z,60.37
2023-05-02T14:26:09.212Z,60.27
2023-05-02T14:28:35.526Z,58.37
2023-05-02T14:31:02.347Z,58.50
2023-05-02T14:33:28.690Z,58.86
2023-05-02T14:35:54.992Z,58.47
2023-05-02T14:38:21.308Z,57.81
2023-05-02T14:40:47.615Z,56.84
2023-05-02T14:43:13.922Z,53.82
2023-05-02T14:45:40.249Z,55.83
2023-05-02T14:48:06.607Z,54.15
2023-05-02T14:50:32.962Z,53.87
2023-05-02T14:52:59.313Z,53.33
2023-05-02T14:55:25.598Z,54.30
2023-05-02T14:57:51.901Z,53.75
2023-05-02T15:00:18.386Z,53.43
2023-05-02T15:02:44.892Z,53.21
2023-05-02T15:05:11.281Z,53.25
2023-05-02T15:07:38.469Z,53.18
2023-05-02T15:10:04.995Z,53.98
2023-05-02T15:12:31.318Z,51.83
2023-05-02T15:14:57.615Z,52.25
2023-05-02T15:17:23.916Z,52.22
2023-05-02T15:19:50.229Z,50.45
2023-05-02T15:22:16.531Z,51.30
2023-05-02T15:24:42.827Z,52.14
2023-05-02T15:27:09.125Z,50.42
2023-05-02T15:29:35.539Z,50.27
2023-05-02T15:32:01.859Z,50.06
2023-05-02T15:34:28.174Z,50.16
2023-05-02T15:36:56.138Z,50.97
2023-05-02T15:39:23.581Z,50.40
2023-05-02T15:41:49.858Z,48.08
2023-05-02T15:44:16.182Z,45.96
2023-05-02T15:46:42.855Z,45.22
2023-05-02T15:49:09.169Z,45.54
2023-05-02T15:51:35.591Z,47.35
2023-05-02T15:54:02.376Z,45.37
2023-05-02T15:56:30.052Z,44.89
2023-05-02T15:58:56.908Z,44.43
2023-05-02T16:01:23.265Z,43.63
2023-05-02T16:03:49.956Z,42.53
2023-05-02T16:06:16.371Z,43.48
2023-05-02T16:08:42.665Z,43.48
2023-05-02T16:11:09.065Z,41.50
2023-05-02T16:13:35.339Z,42.53
2023-05-02T16:16:01.715Z,43.10
2023-05-02T16:18:28.189Z,42.82
2023-05-02T16:20:57.867Z,41.82
2023-05-02T16:23:24.879Z,42.26
2023-05-02T16:25:57.512Z,42.64
2023-05-02T16:28:23.887Z,42.95
2023-05-02T16:30:50.366Z,44.39
2023-05-02T16:33:16.644Z,44.07
2023-05-02T16:35:42.932Z,42.78
2023-05-02T16:38:09.294Z,41.97
2023-05-02T16:40:35.611Z,42.44
2023-05-02T16:43:01.871Z,43.20
2023-05-02T16:45:28.256Z,41.22
2023-05-02T16:47:54.592Z,42.00
2023-05-02T16:50:20.978Z,40.77
2023-05-02T16:52:47.273Z,39.79
2023-05-02T16:55:13.566Z,40.55
2023-05-02T16:57:39.919Z,40.67
2023-05-02T17:00:07.061Z,40.93
2023-05-02T17:02:33.597Z,40.91
2023-05-02T17:05:00.234Z,40.03
2023-05-02T17:07:26.907Z,40.07
2023-05-02T17:09:53.726Z,39.12
2023-05-02T17:12:20.026Z,39.62
2023-05-02T17:14:46.348Z,39.77
2023-05-02T17:17:12.684Z,39.97
2023-05-02T17:19:39.073Z,41.02
2023-05-02T17:22:05.601Z,41.08
2023-05-02T17:24:32.796Z,42.08
2023-05-02T17:26:59.268Z,43.78
2023-05-02T17:29:25.585Z,44.83
2023-05-02T17:31:51.994Z,47.19
2023-05-02T17:34:18.303Z,47.48
2023-05-02T17:36:44.609Z,49.00
2023-05-02T17:39:11.034Z,49.88
2023-05-02T17:41:37.567Z,51.41
2023-05-02T17:44:04.003Z,53.08
2023-05-02T17:46:30.679Z,53.49
2023-05-02T17:48:57.017Z,53.99
2023-05-02T17:51:23.318Z,54.55
2023-05-02T17:53:52.593Z,55.04
2023-05-02T17:56:19.062Z,55.53
2023-05-02T17:58:45.543Z,55.84
2023-05-02T18:01:12.828Z,56.52
2023-05-02T18:03:40.150Z,55.90
2023-05-02T18:06:07.018Z,56.85
2023-05-02T18:08:33.502Z,57.54
2023-05-02T18:11:00.081Z,58.41
2023-05-02T18:13:26.936Z,58.44
2023-05-02T18:16:00.733Z,58.38
2023-05-02T18:18:27.142Z,57.20
2023-05-02T18:20:53.457Z,58.25
2023-05-02T18:23:19.857Z,58.41
2023-05-02T18:25:46.191Z,59.30
2023-05-02T18:28:12.518Z,58.33
2023-05-02T18:30:39.324Z,59.32
2023-05-02T18:33:06.848Z,59.12
2023-05-02T18:35:33.457Z,60.55
2023-05-02T18:37:59.771Z,60.40
2023-05-02T18:40:26.111Z,60.74
2023-05-02T18:42:52.461Z,62.91
2023-05-02T18:45:18.751Z,61.07
2023-05-02T18:47:45.203Z,61.72
2023-05-02T18:50:11.523Z,61.73
2023-05-02T18:52:37.897Z,62.24
2023-05-02T18:55:04.707Z,62.31
2023-05-02T18:57:31.101Z,64.95
2023-05-02T18:59:57.971Z,65.22
2023-05-02T19:02:24.413Z,65.44
2023-05-02T19:04:50.855Z,63.77
2023-05-02T19:07:17.352Z,66.18
2023-05-02T19:09:44.041Z,64.96
2023-05-02T19:12:10.424Z,67.19
2023-05-02T19:14:36.719Z,66.14
2023-05-02T19:17:03.435Z,67.92
2023-05-02T19:19:29.911Z,67.88
2023-05-02T19:21:56.366Z,66.22
2023-05-02T19:24:23.102Z,64.97
2023-05-02T19:26:49.486Z,67.00
2023-05-02T19:29:15.803Z,65.86
2023-05-02T19:31:42.282Z,66.08
2023-05-02T19:34:08.622Z,66.38
2023-05-02T19:36:35.135Z,65.94
2023-05-02T19:39:01.465Z,65.57
2023-05-02T19:41:27.895Z,65.47
2023-05-02T19:43:54.799Z,65.51
2023-05-02T19:46:21.523Z,66.99
2023-05-02T19:48:51.489Z,66.29
2023-05-02T19:51:20.038Z,66.53
2023-05-02T19:53:46.326Z,65.65
2023-05-02T19:56:12.619Z,65.93
2023-05-02T19:58:39.004Z,67.75
2023-05-02T20:03:40.653Z,67.01
2023-05-02T20:06:07.148Z,67.10
2023-05-02T20:08:33.570Z,68.00
2023-05-02T20:10:59.958Z,70.97
2023-05-02T20:13:26.369Z,69.20
2023-05-02T20:15:53.339Z,69.56
2023-05-02T20:18:19.905Z,70.84
2023-05-02T20:20:46.482Z,70.12
2023-05-02T20:23:13.300Z,71.02
2023-05-02T20:25:40.585Z,71.25
2023-05-02T20:28:08.758Z,71.31
2023-05-02T20:30:35.066Z,72.08
2023-05-02T20:33:14.158Z,70.76
2023-05-02T20:38:17.406Z,70.90
2023-05-02T20:40:44.094Z,71.34
2023-05-02T20:43:10.420Z,71.04
2023-05-02T20:45:36.733Z,71.50
2023-05-02T20:48:03.295Z,71.68
2023-05-02T20:50:29.647Z,72.82
2023-05-02T20:52:55.981Z,71.45
2023-05-02T20:55:22.488Z,72.37
2023-05-02T20:57:48.790Z,71.60
2023-05-02T21:00:15.522Z,71.77
2023-05-02T21:02:42.005Z,71.32
2023-05-02T21:05:08.511Z,70.90
2023-05-02T21:07:34.929Z,70.43
2023-05-02T21:10:01.551Z,71.12
2023-05-02T21:12:28.220Z,72.61
2023-05-02T21:14:54.537Z,72.38
2023-05-02T21:17:20.924Z,72.40
2023-05-02T21:19:47.242Z,73.03
2023-05-02T21:22:13.598Z,71.78
2023-05-02T21:24:40.429Z,71.65
2023-05-02T21:27:06.764Z,72.86
2023-05-02T21:29:33.100Z,72.71
2023-05-02T21:31:59.389Z,73.19
2023-05-02T21:34:25.683Z,72.02
2023-05-02T21:36:52.092Z,72.36
2023-05-02T21:39:18.361Z,71.28
2023-05-02T21:41:44.672Z,71.76
2023-05-02T21:44:10.975Z,73.36
2023-05-02T21:46:37.321Z,73.76
2023-05-02T21:49:03.672Z,73.49
2023-05-02T21:51:30.025Z,73.99
2023-05-02T21:53:56.290Z,73.59
2023-05-02T21:56:22.755Z,74.24
2023-05-02T21:58:49.054Z,74.33
2023-05-02T22:01:15.383Z,74.82
2023-05-02T22:03:41.705Z,75.63
2023-05-02T22:06:08.086Z,76.70
2023-05-02T22:08:34.769Z,75.30
2023-05-02T22:11:05.563Z,75.42
2023-05-02T22:13:32.027Z,76.40
2023-05-02T22:15:58.338Z,77.17
2023-05-02T22:18:24.616Z,76.73
2023-05-02T22:20:51.005Z,76.31
2023-05-02T22:23:17.300Z,76.28
2023-05-02T22:25:44.324Z,77.69
2023-05-02T22:28:11.117Z,76.96
2023-05-02T22:30:38.704Z,78.50
2023-05-02T22:33:05.712Z,78.93
2023-05-02T22:35:32.159Z,78.90
2023-05-02T22:38:00.050Z,79.35
2023-05-02T22:40:26.480Z,79.66
2023-05-02T22:42:52.758Z,79.56
2023-05-02T22:45:19.090Z,78.98
2023-05-02T22:47:45.436Z,77.93
2023-05-02T22:50:11.700Z,79.42
2023-05-02T22:52:38.182Z,78.57
2023-05-02T22:55:06.126Z,78.84
2023-05-02T22:57:32.651Z,79.64
2023-05-02T22:59:59.048Z,80.42
2023-05-02T23:02:25.341Z,79.91
2023-05-02T23:04:51.796Z,79.61
2023-05-02T23:07:18.096Z,79.19
2023-05-02T23:09:44.428Z,79.98
2023-05-02T23:12:10.783Z,79.68
2023-05-02T23:14:37.161Z,79.52
2023-05-02T23:17:03.501Z,78.65
2023-05-02T23:19:30.058Z,79.33
2023-05-02T23:21:57.327Z,78.68
2023-05-02T23:24:23.633Z,80.20
2023-05-02T23:26:49.944Z,80.46
2023-05-02T23:29:16.399Z,78.80
2023-05-02T23:31:42.946Z,79.62
2023-05-02T23:34:10.126Z,79.74
2023-05-02T23:36:36.503Z,78.22
2023-05-02T23:39:02.772Z,79.01
2023-05-02T23:41:29.752Z,79.75
2023-05-02T23:43:56.171Z,79.10
2023-05-02T23:46:22.639Z,79.24
2023-05-02T23:48:48.972Z,79.07
2023-05-02T23:51:15.248Z,80.73
2023-05-02T23:53:41.506Z,79.95
2023-05-02T23:56:07.882Z,80.85
2023-05-02T23:58:34.167Z,80.22
